Time;durP1;ratioP1;P1;durP2;ratioP2;P2;SDS_P1;SDS_P2;PMS_P1;PMS_P2;Temp;Humidity;BMP_temperature;BMP_pressure;BME280_temperature;BME280_humidity;BME280_pressure;Samples;Min_cycle;Max_cycle;Signal;HPM_P1;HPM_P2
2023/01/17 00:00:00;;;;;;;3.92;1.73;;;3.70;99.90;;;2.05;100.00;96947.50;5018605;28;20054;-74
2023/01/17 00:02:25;;;;;;;2.97;1.83;;;3.70;99.90;;;1.99;100.00;96947.47;4996962;28;20035;-72
2023/01/17 00:10:24;;;;;;;2.50;1.52;;;3.70;99.90;;;1.98;100.00;96945.00;4996848;28;20125;-73
2023/01/17 00:12:57;;;;;;;5.57;2.92;;;3.70;99.90;;;1.97;100.00;96943.38;5003922;28;20045;-72
2023/01/17 00:15:24;;;;;;;3.50;1.88;;;3.60;99.90;;;1.96;100.00;96939.88;4997045;28;20381;-71
2023/01/17 00:17:50;;;;;;;8.95;3.95;;;3.60;99.90;;;1.97;100.00;96938.00;5018443;28;20478;-72
2023/01/17 00:26:05;;;;;;;3.97;2.50;;;3.60;99.90;;;1.89;100.00;96950.00;4994615;28;20034;-72
2023/01/17 01:35:52;;;;;;;8.90;5.35;;;3.40;99.90;;;1.74;100.00;96993.66;4995897;28;20390;-74
2023/01/17 01:38:22;;;;;;;10.45;6.03;;;3.40;99.90;;;1.72;100.00;96993.91;4995455;28;20421;-74
2023/01/17 01:40:52;;;;;;;9.40;5.57;;;3.40;99.90;;;1.69;100.00;96988.22;5017282;28;20042;-74
2023/01/17 01:43:43;;;;;;;10.52;6.22;;;3.40;99.90;;;1.75;100.00;96987.19;5001254;28;20367;-73
2023/01/17 01:46:25;;;;;;;12.63;6.43;;;3.50;99.90;;;1.75;100.00;97006.00;4995646;28;20037;-73
2023/01/17 01:48:58;;;;;;;10.85;6.80;;;3.50;99.90;;;1.75;100.00;97003.31;5010115;28;20037;-73
2023/01/17 01:51:39;;;;;;;11.48;6.20;;;3.50;99.90;;;1.72;100.00;97017.28;5010119;28;20426;-74
2023/01/17 01:54:19;;;;;;;11.48;6.65;;;3.50;99.90;;;1.71;100.00;97015.66;4995052;28;20034;-73
2023/01/17 01:56:47;;;;;;;11.93;7.13;;;3.50;99.90;;;1.74;100.00;97025.88;5010715;28;20415;-73
2023/01/17 01:59:18;;;;;;;11.50;6.82;;;3.50;99.90;;;1.74;100.00;97025.88;4995763;28;20046;-74
2023/01/17 02:01:48;;;;;;;11.18;7.07;;;3.50;99.90;;;1.73;100.00;97026.97;4995363;28;20447;-74
2023/01/17 02:04:14;;;;;;;10.18;6.78;;;3.50;99.90;;;1.64;100.00;97031.13;4994256;28;20038;-73
2023/01/17 02:06:50;;;;;;;10.73;6.82;;;3.50;99.90;;;1.67;100.00;97044.06;4995464;28;20042;-74
2023/01/17 02:09:17;;;;;;;9.90;6.10;;;3.50;99.90;;;1.71;100.00;97043.31;5009849;28;20478;-74
2023/01/17 02:11:47;;;;;;;9.38;5.90;;;3.50;99.90;;;1.69;100.00;97055.38;4995321;28;20030;-74
2023/01/17 02:14:19;;;;;;;9.63;5.90;;;3.50;99.90;;;1.68;100.00;97057.25;4993762;28;20082;-74
2023/01/17 02:17:28;;;;;;;9.52;5.90;;;3.40;99.90;;;1.66;100.00;97058.56;5008431;28;20074;-74
2023/01/17 02:20:26;;;;;;;9.88;6.40;;;3.40;99.90;;;1.65;100.00;97056.94;4993655;28;20096;-74
2023/01/17 02:23:06;;;;;;;8.75;5.22;;;3.40;99.90;;;1.63;100.00;97057.19;4994026;28;20489;-74
2023/01/17 02:25:49;;;;;;;8.73;5.47;;;3.40;99.90;;;1.60;100.00;97059.56;4995095;28;20034;-74
2023/01/17 02:28:36;;;;;;;8.20;5.05;;;3.40;99.90;;;1.57;100.00;97064.34;5017340;28;20375;-74
2023/01/17 02:31:19;;;;;;;8.30;4.90;;;3.30;99.90;;;1.57;100.00;97080.47;4980185;28;20394;-75
2023/01/17 02:34:09;;;;;;;7.07;3.97;;;3.30;99.90;;;1.55;100.00;97074.53;4992630;28;20109;-74
2023/01/17 02:36:54;;;;;;;6.38;4.03;;;3.30;99.90;;;1.49;100.00;97063.97;4994855;28;20041;-73
2023/01/17 02:39:28;;;;;;;6.60;3.22;;;3.30;99.90;;;1.49;100.00;97072.84;4994809;28;20069;-72
2023/01/17 02:42:03;;;;;;;7.68;3.63;;;3.30;99.90;;;1.47;100.00;97080.31;4994458;28;20031;-73
2023/01/17 02:44:29;;;;;;;6.43;3.90;;;3.20;99.90;;;1.44;100.00;97078.13;4994709;28;20054;-73
2023/01/17 02:46:56;;;;;;;6.38;3.88;;;3.20;99.90;;;1.48;100.00;97089.22;5009148;28;20440;-73
2023/01/17 02:49:30;;;;;;;7.25;3.95;;;3.20;99.90;;;1.46;100.00;97097.50;5006923;28;20081;-73
2023/01/17 02:52:56;;;;;;;6.18;3.47;;;3.20;99.90;;;1.48;100.00;97099.97;5000302;28;20057;-73
2023/01/17 02:55:46;;;;;;;5.47;3.25;;;3.20;99.90;;;1.42;100.00;97102.53;4994520;28;20118;-73
2023/01/17 02:58:51;;;;;;;6.07;3.90;;;3.20;99.90;;;1.39;100.00;97099.56;5000499;28;20490;-74
2023/01/17 03:01:46;;;;;;;6.72;4.35;;;3.10;99.90;;;1.40;100.00;97107.34;5009096;28;20455;-73
2023/01/17 03:04:23;;;;;;;8.43;4.82;;;3.10;99.90;;;1.41;100.00;97110.88;4992824;28;20073;-73
2023/01/17 03:07:02;;;;;;;8.85;5.00;;;3.20;99.90;;;1.42;100.00;97112.50;5009401;28;20037;-74
2023/01/17 03:09:31;;;;;;;8.23;5.07;;;3.20;99.90;;;1.45;100.00;97122.75;5008537;28;20041;-74
2023/01/17 03:11:58;;;;;;;7.93;4.72;;;3.20;99.90;;;1.49;100.00;97123.88;4994059;28;20049;-74
2023/01/17 03:14:24;;;;;;;8.30;5.05;;;3.20;99.90;;;1.48;100.00;97130.31;4993336;28;20038;-74
2023/01/17 03:16:50;;;;;;;8.43;4.53;;;3.20;99.90;;;1.48;100.00;97135.69;4994499;28;20069;-75
2023/01/17 03:19:15;;;;;;;7.13;4.85;;;3.20;99.90;;;1.54;100.00;97139.28;4993846;28;20065;-74
2023/01/17 03:21:41;;;;;;;7.57;4.85;;;3.30;99.90;;;1.47;100.00;97134.06;4993764;28;20041;-73
2023/01/17 03:24:07;;;;;;;8.15;4.75;;;3.30;99.90;;;1.53;100.00;97145.72;4994620;28;20414;-73
2023/01/17 03:26:33;;;;;;;6.60;4.57;;;3.30;99.90;;;1.55;100.00;97135.53;4994010;28;20038;-73
2023/01/17 03:28:59;;;;;;;7.68;4.40;;;3.30;99.90;;;1.57;100.00;97160.28;4992585;28;20035;-73
2023/01/17 03:31:24;;;;;;;7.65;4.20;;;3.30;99.90;;;1.61;100.00;97149.88;4994204;28;20026;-73
2023/01/17 03:33:50;;;;;;;7.22;4.15;;;3.30;99.90;;;1.59;100.00;97163.53;4998471;28;20049;-73
2023/01/17 03:36:17;;;;;;;7.10;4.03;;;3.30;99.90;;;1.57;100.00;97161.09;4994480;28;20034;-73
2023/01/17 03:38:43;;;;;;;5.78;3.70;;;3.30;99.90;;;1.54;100.00;97166.94;5008649;28;20128;-75
2023/01/17 03:41:09;;;;;;;6.30;3.65;;;3.30;99.90;;;1.56;100.00;97172.09;4994813;28;20475;-74
2023/01/17 03:43:34;;;;;;;5.68;3.70;;;3.30;99.90;;;1.60;100.00;97165.16;4994098;28;20042;-74
2023/01/17 03:46:15;;;;;;;8.13;4.10;;;3.30;99.90;;;1.51;100.00;97172.00;4998959;28;20042;-74
2023/01/17 03:48:41;;;;;;;6.55;3.65;;;3.30;99.90;;;1.56;100.00;97177.47;4994070;28;20112;-73
2023/01/17 03:51:07;;;;;;;7.03;4.05;;;3.30;99.90;;;1.58;100.00;97194.94;4993117;28;20391;-74
2023/01/17 03:53:33;;;;;;;5.60;3.45;;;3.30;99.90;;;1.63;100.00;97193.44;5007950;28;20038;-73
2023/01/17 03:55:59;;;;;;;5.68;3.30;;;3.30;99.90;;;1.67;100.00;97189.19;4993251;28;20038;-74
2023/01/17 03:58:24;;;;;;;4.55;2.97;;;3.40;99.90;;;1.69;100.00;97182.50;4998413;28;20037;-73
2023/01/17 04:00:50;;;;;;;4.78;3.40;;;3.40;99.90;;;1.67;100.00;97197.25;4999945;28;20030;-74
2023/01/17 04:03:16;;;;;;;4.75;3.10;;;3.40;99.90;;;1.70;100.00;97202.94;5008011;28;20047;-74
2023/01/17 04:05:41;;;;;;;4.80;2.80;;;3.40;99.90;;;1.73;100.00;97198.97;4993274;28;20085;-74
2023/01/17 04:08:07;;;;;;;4.88;3.10;;;3.40;99.90;;;1.71;100.00;97193.03;4993762;28;20458;-72
2023/01/17 04:10:33;;;;;;;4.80;2.90;;;3.40;99.90;;;1.66;100.00;97215.25;4993511;28;20026;-73
2023/01/17 04:12:59;;;;;;;4.68;2.90;;;3.40;99.90;;;1.64;100.00;97192.38;4993423;28;20041;-73
2023/01/17 04:15:24;;;;;;;5.28;2.70;;;3.40;99.90;;;1.66;100.00;97201.81;4998019;28;20046;-73
2023/01/17 04:17:50;;;;;;;6.13;3.40;;;3.40;99.90;;;1.62;100.00;97199.88;4994027;28;20041;-74
2023/01/17 04:20:29;;;;;;;6.03;3.30;;;3.30;99.90;;;1.56;100.00;97210.50;4994135;28;20174;-74
2023/01/17 04:22:55;;;;;;;5.30;3.33;;;3.40;99.90;;;1.57;100.00;97204.06;4993153;28;20038;-73
2023/01/17 04:25:21;;;;;;;5.72;3.17;;;3.30;99.90;;;1.50;100.00;97203.41;4992950;28;20398;-73
2023/01/17 04:27:46;;;;;;;5.68;3.65;;;3.20;99.90;;;1.44;100.00;97199.81;5001657;28;20497;-74
2023/01/17 04:30:12;;;;;;;6.22;3.33;;;3.20;99.90;;;1.46;100.00;97202.28;5002111;28;20042;-73
2023/01/17 04:32:38;;;;;;;5.13;3.40;;;3.20;99.90;;;1.49;100.00;97209.84;4997277;28;20030;-73
2023/01/17 04:35:05;;;;;;;5.47;3.15;;;3.20;99.90;;;1.60;100.00;97228.84;4999923;28;20449;-73
2023/01/17 04:37:31;;;;;;;4.35;3.10;;;3.30;99.90;;;1.66;100.00;97225.19;5001162;28;20038;-73
2023/01/17 04:39:57;;;;;;;4.43;3.22;;;3.40;99.90;;;1.69;100.00;97233.56;5011984;28;20044;-72
2023/01/17 04:42:23;;;;;;;4.93;2.78;;;3.40;99.90;;;1.71;100.00;97234.13;4996533;28;20045;-72
2023/01/17 04:44:48;;;;;;;4.95;2.80;;;3.40;99.90;;;1.80;100.00;97229.19;5010910;28;20057;-72
2023/01/17 04:47:14;;;;;;;3.75;2.22;;;3.50;99.90;;;1.81;100.00;97233.50;5001097;28;20497;-73
2023/01/17 04:49:40;;;;;;;3.95;2.50;;;3.60;99.90;;;1.85;100.00;97249.97;4996518;28;20076;-73
2023/01/17 04:52:05;;;;;;;5.07;2.40;;;3.60;99.90;;;1.84;100.00;97246.44;4996866;28;20034;-73
2023/01/17 04:54:31;;;;;;;3.92;2.20;;;3.50;99.90;;;1.84;100.00;97251.03;5010671;28;20029;-73
2023/01/17 04:56:57;;;;;;;2.88;1.90;;;3.50;99.90;;;1.78;100.00;97255.50;5015080;28;20055;-72
2023/01/17 04:59:22;;;;;;;5.97;2.30;;;3.50;99.90;;;1.77;100.00;97258.44;4996449;28;20034;-73
2023/01/17 05:01:48;;;;;;;3.72;2.25;;;3.50;99.90;;;1.72;100.00;97256.47;4996797;28;20039;-72
2023/01/17 05:04:14;;;;;;;3.35;1.95;;;3.50;99.90;;;1.72;100.00;97259.16;5001241;28;20042;-72
2023/01/17 05:06:43;;;;;;;3.00;1.75;;;3.50;99.90;;;1.66;100.00;97265.50;4996488;28;20034;-73
2023/01/17 05:09:09;;;;;;;2.85;1.83;;;3.40;99.90;;;1.68;100.00;97269.56;4995082;28;20398;-74
2023/01/17 05:11:35;;;;;;;2.67;1.75;;;3.40;99.90;;;1.66;100.00;97284.31;4996434;28;20419;-75
2023/01/17 05:14:01;;;;;;;3.72;2.13;;;3.40;99.90;;;1.59;100.00;97276.41;4996609;28;20120;-74
2023/01/17 05:16:27;;;;;;;3.10;1.77;;;3.30;99.90;;;1.52;100.00;97281.91;4996233;28;20042;-73
2023/01/17 05:18:53;;;;;;;2.67;1.65;;;3.30;99.90;;;1.52;100.00;97292.66;5011511;28;20092;-74
2023/01/17 05:21:22;;;;;;;2.90;1.58;;;3.30;99.90;;;1.52;100.00;97284.59;4995709;28;20057;-74
2023/01/17 05:23:48;;;;;;;2.20;1.40;;;3.20;99.90;;;1.50;100.00;97318.94;4995585;28;20149;-74
2023/01/17 05:26:14;;;;;;;1.52;1.00;;;3.20;99.90;;;1.43;100.00;97312.91;4996212;28;20125;-74
2023/01/17 05:28:39;;;;;;;2.60;0.90;;;3.20;99.90;;;1.38;100.00;97324.38;5009928;28;20474;-74
2023/01/17 05:31:05;;;;;;;1.77;0.90;;;3.10;99.90;;;1.33;100.00;97336.91;4994222;28;20038;-74
2023/01/17 05:33:31;;;;;;;1.67;0.90;;;3.10;99.90;;;1.24;100.00;97325.72;5009039;28;20038;-74
2023/01/17 05:35:57;;;;;;;1.20;0.73;;;3.10;99.90;;;1.15;100.00;97336.81;4993068;28;20088;-74
2023/01/17 05:38:22;;;;;;;0.98;0.60;;;3.00;99.90;;;1.11;100.00;97340.22;5002138;28;20069;-74
2023/01/17 05:40:48;;;;;;;1.60;0.60;;;2.90;99.90;;;1.00;100.00;97355.28;4996366;28;20042;-74
2023/01/17 05:43:15;;;;;;;0.95;0.50;;;2.80;99.90;;;0.86;100.00;97365.47;4995515;28;20041;-75
2023/01/17 05:45:41;;;;;;;1.00;0.47;;;2.70;99.90;;;0.69;100.00;97382.25;5010169;28;20081;-74
2023/01/17 05:48:08;;;;;;;0.73;0.52;;;2.60;99.90;;;0.52;100.00;97392.03;4999040;28;20497;-75
2023/01/17 05:50:36;;;;;;;1.00;0.60;;;2.40;99.90;;;0.44;100.00;97393.19;4993310;28;20051;-74
2023/01/17 05:53:07;;;;;;;2.78;0.63;;;2.20;99.90;;;0.27;100.00;97425.22;4996345;28;20164;-74
2023/01/17 05:55:34;;;;;;;1.92;0.65;;;2.10;99.90;;;0.22;100.00;97411.66;4995036;28;20125;-75
2023/01/17 05:57:59;;;;;;;1.33;0.65;;;2.00;99.90;;;0.20;100.00;97406.56;4998052;28;20053;-74
2023/01/17 06:00:26;;;;;;;1.30;0.50;;;2.00;99.90;;;0.08;100.00;97414.56;5003251;28;20034;-75
2023/01/17 06:02:54;;;;;;;1.02;0.50;;;2.00;99.90;;;-0.03;100.00;97415.31;4987225;28;20030;-75
2023/01/17 06:05:21;;;;;;;1.70;0.50;;;1.80;99.90;;;-0.16;100.00;97413.63;4995551;28;20045;-75
2023/01/17 06:07:48;;;;;;;2.00;0.60;;;1.70;99.90;;;-0.28;100.00;97418.94;4999934;28;20120;-74
2023/01/17 06:10:16;;;;;;;0.73;0.40;;;1.60;99.90;;;-0.38;100.00;97432.06;5000985;28;20053;-77
2023/01/17 06:12:43;;;;;;;;;;;1.50;99.90;;;-0.45;100.00;97429.47;4996231;28;20049;-75
2023/01/17 06:15:11;;;;;;;0.55;0.50;;;1.40;99.90;;;-0.45;100.00;97441.00;4999048;28;19917;-74
2023/01/17 06:17:37;;;;;;;1.27;0.75;;;1.40;99.90;;;-0.46;100.00;97446.56;5001458;28;20473;-73
2023/01/17 06:20:11;;;;;;;1.80;0.80;;;1.40;99.90;;;-0.53;100.00;97435.97;5000476;28;20030;-74
2023/01/17 06:22:37;;;;;;;3.22;1.10;;;1.40;99.90;;;-0.52;100.00;97450.97;5004387;28;20029;-73
2023/01/17 06:25:03;;;;;;;1.80;0.90;;;1.30;99.90;;;-0.49;100.00;97442.50;5003208;28;20050;-74
2023/01/17 06:27:29;;;;;;;1.98;1.02;;;1.30;99.90;;;-0.49;100.00;97439.81;4995045;28;20038;-73
2023/01/17 06:29:55;;;;;;;3.42;1.20;;;1.30;99.90;;;-0.41;100.00;97453.94;4996650;28;20034;-73
2023/01/17 06:32:21;;;;;;;2.90;1.13;;;1.40;99.90;;;-0.22;100.00;97442.19;4995475;28;20038;-73
2023/01/17 06:34:46;;;;;;;3.45;0.95;;;1.60;99.90;;;-0.13;100.00;97449.91;4995246;28;20442;-73
2023/01/17 06:37:12;;;;;;;2.83;1.25;;;1.60;99.90;;;-0.09;100.00;97445.72;5004699;28;20033;-73
2023/01/17 06:39:38;;;;;;;3.35;0.90;;;1.70;99.90;;;-0.02;100.00;97460.69;5020850;28;20564;-73
2023/01/17 06:42:04;;;;;;;4.50;1.30;;;1.80;99.90;;;0.04;100.00;97482.25;5023190;28;20041;-74
2023/01/17 06:44:29;;;;;;;2.80;1.00;;;1.80;99.90;;;-0.05;100.00;97474.53;5006271;28;20046;-74
2023/01/17 06:46:55;;;;;;;1.77;0.80;;;1.80;99.90;;;-0.03;100.00;97487.69;4995604;28;20501;-73
2023/01/17 06:49:21;;;;;;;2.97;0.90;;;1.80;99.90;;;-0.07;100.00;97498.06;4994558;28;20046;-73
2023/01/17 06:51:46;;;;;;;6.85;1.38;;;1.80;99.90;;;-0.04;100.00;97512.84;4994050;28;20037;-72
2023/01/17 06:54:12;;;;;;;2.97;1.02;;;1.80;99.90;;;-0.10;100.00;97521.81;4994391;28;20383;-73
2023/01/17 06:56:38;;;;;;;5.25;1.30;;;1.70;99.90;;;-0.15;100.00;97523.31;4994640;28;20041;-73
2023/01/17 06:59:04;;;;;;;3.08;1.42;;;1.70;99.90;;;-0.18;100.00;97523.75;4994238;28;20073;-73
2023/01/17 07:01:30;;;;;;;4.40;1.08;;;1.70;99.90;;;-0.24;100.00;97538.06;4993681;28;20069;-73
2023/01/17 07:03:56;;;;;;;4.13;1.17;;;1.60;99.90;;;-0.31;100.00;97537.28;4994071;28;20403;-72
2023/01/17 07:06:23;;;;;;;2.83;1.05;;;1.50;99.90;;;-0.32;100.00;97538.31;4993733;28;20038;-72
2023/01/17 07:08:49;;;;;;;3.33;1.27;;;1.50;99.90;;;-0.28;100.00;97542.19;4993822;28;20035;-73
2023/01/17 07:11:15;;;;;;;4.85;1.30;;;1.50;99.90;;;-0.22;100.00;97544.00;4994385;28;20505;-72
2023/01/17 07:13:41;;;;;;;4.43;1.50;;;1.60;99.90;;;-0.17;100.00;97549.50;4994019;28;20475;-72
2023/01/17 07:16:07;;;;;;;3.15;1.27;;;1.60;99.90;;;-0.10;100.00;97545.94;5009217;28;20092;-72
2023/01/17 07:18:33;;;;;;;2.42;0.90;;;1.70;99.90;;;-0.09;100.00;97556.44;4993975;28;20456;-72
2023/01/17 07:20:59;;;;;;;2.42;1.08;;;1.70;99.90;;;-0.04;100.00;97563.78;4993712;28;20130;-72
2023/01/17 07:23:25;;;;;;;3.70;0.98;;;1.70;99.90;;;-0.05;100.00;97567.50;5008239;28;20039;-72
2023/01/17 07:25:54;;;;;;;1.85;1.02;;;1.80;99.90;;;-0.03;100.00;97581.50;5000583;28;20042;-73
2023/01/17 07:28:20;;;;;;;2.38;0.90;;;1.80;99.90;;;-0.01;100.00;97582.09;4994038;28;20042;-72
2023/01/17 07:30:46;;;;;;;2.92;1.10;;;1.80;99.90;;;0.00;100.00;97597.16;5003580;28;20066;-73
2023/01/17 07:33:12;;;;;;;6.05;1.10;;;1.80;99.90;;;0.01;100.00;97590.75;4999872;28;20466;-73
2023/01/17 07:35:38;;;;;;;3.42;1.20;;;1.80;99.90;;;0.02;100.00;97587.03;5001431;28;21788;-72
2023/01/17 07:38:10;;;;;;;3.38;1.10;;;1.80;99.90;;;0.00;100.00;97591.81;4997084;28;20491;-72
2023/01/17 07:40:38;;;;;;;4.40;0.80;;;1.80;99.90;;;0.02;100.00;97597.75;5009910;28;20284;-73
2023/01/17 07:43:12;;;;;;;1.90;0.90;;;1.80;99.90;;;0.05;100.00;97609.88;4992811;28;20045;-73
2023/01/17 07:45:49;;;;;;;3.72;1.05;;;1.80;99.90;;;0.01;100.00;97606.84;4993827;28;20039;-73
2023/01/17 07:48:22;;;;;;;2.90;1.17;;;1.80;99.90;;;0.05;100.00;97610.72;5005249;28;20053;-73
2023/01/17 07:50:56;;;;;;;3.83;1.13;;;1.80;99.90;;;0.04;100.00;97605.56;4994166;28;20060;-73
2023/01/17 07:53:24;;;;;;;4.10;1.50;;;1.80;99.90;;;0.08;100.00;97604.91;5004511;28;20388;-73
2023/01/17 07:55:52;;;;;;;5.32;1.25;;;1.80;99.90;;;0.09;100.00;97608.38;5025964;28;20045;-74
2023/01/17 07:58:18;;;;;;;4.68;1.35;;;1.90;99.90;;;0.07;100.00;97599.75;5013937;28;20045;-74
2023/01/17 08:00:44;;;;;;;3.67;1.40;;;1.90;99.90;;;0.06;100.00;97604.31;5011442;28;20558;-73
2023/01/17 08:03:16;;;;;;;7.40;1.58;;;1.90;99.90;;;0.05;100.00;97604.53;5010263;28;20062;-73
2023/01/17 08:05:51;;;;;;;5.05;1.50;;;1.90;99.90;;;0.06;100.00;97615.03;5014783;28;20041;-73
2023/01/17 08:08:16;;;;;;;5.18;1.85;;;1.90;99.90;;;0.03;100.00;97620.00;5010710;28;20115;-74
2023/01/17 08:10:42;;;;;;;4.93;1.60;;;1.90;99.90;;;0.08;100.00;97633.56;5003505;28;20038;-73
2023/01/17 08:13:08;;;;;;;6.30;1.75;;;1.90;99.90;;;0.07;100.00;97634.59;5026594;28;20413;-74
2023/01/17 08:15:33;;;;;;;3.53;1.67;;;1.90;99.90;;;0.12;100.00;97648.16;4997255;28;20034;-75
2023/01/17 08:17:59;;;;;;;5.63;1.85;;;1.90;99.90;;;0.10;100.00;97645.72;5005621;28;20072;-73
2023/01/17 08:20:25;;;;;;;4.65;1.70;;;1.90;99.90;;;0.12;100.00;97640.94;5009785;28;20546;-73
2023/01/17 08:22:54;;;;;;;6.97;2.17;;;1.90;99.90;;;0.16;100.00;97661.94;5013492;28;20125;-73
2023/01/17 08:25:23;;;;;;;6.70;2.00;;;1.90;99.90;;;0.18;100.00;97665.22;5010955;28;20512;-73
2023/01/17 08:27:49;;;;;;;3.75;1.90;;;2.00;99.90;;;0.23;100.00;97676.09;4999131;28;20041;-76
2023/01/17 08:30:16;;;;;;;7.78;1.90;;;2.00;99.90;;;0.23;100.00;97670.72;5014191;28;20506;-74
2023/01/17 08:32:42;;;;;;;4.57;1.88;;;2.00;99.90;;;0.28;100.00;97674.41;4997505;28;20042;-73
2023/01/17 08:35:08;;;;;;;7.68;2.33;;;2.00;99.90;;;0.31;100.00;97689.22;5004047;28;20053;-74
2023/01/17 08:37:36;;;;;;;4.88;1.92;;;2.10;99.90;;;0.34;100.00;97682.59;5015325;28;20041;-73
2023/01/17 08:40:04;;;;;;;5.45;1.88;;;2.10;99.90;;;0.32;100.00;97693.56;5016095;28;20037;-75
2023/01/17 08:42:36;;;;;;;5.45;2.03;;;2.10;99.90;;;0.38;100.00;97700.69;5010398;28;20048;-73
2023/01/17 08:45:04;;;;;;;8.57;2.08;;;2.10;99.90;;;0.37;100.00;97709.78;5015642;28;20136;-72
2023/01/17 08:47:31;;;;;;;5.90;2.03;;;2.10;99.90;;;0.40;100.00;97701.28;5021989;28;20038;-72
2023/01/17 08:49:58;;;;;;;3.88;1.50;;;2.20;99.90;;;0.42;100.00;97711.81;5010002;28;20494;-74
2023/01/17 08:52:25;;;;;;;4.20;1.58;;;2.20;99.90;;;0.47;100.00;97711.13;5011507;28;20033;-72
2023/01/17 08:54:52;;;;;;;4.13;1.48;;;2.20;99.90;;;0.47;100.00;97727.22;5024898;28;20034;-73
2023/01/17 08:57:19;;;;;;;5.13;1.67;;;2.20;99.90;;;0.52;100.00;97720.16;5010129;28;20552;-73
2023/01/17 08:59:45;;;;;;;3.13;1.55;;;2.30;99.90;;;0.61;100.00;97741.31;5011163;28;20042;-72
2023/01/17 09:02:17;;;;;;;3.17;1.20;;;2.30;99.90;;;0.61;100.00;97730.56;5010857;28;20052;-73
2023/01/17 09:04:48;;;;;;;2.33;1.38;;;2.40;99.90;;;0.70;100.00;97743.47;5019640;28;20048;-74
2023/01/17 09:07:17;;;;;;;4.57;1.60;;;2.40;99.90;;;0.75;100.00;97755.41;5008145;28;20034;-73
2023/01/17 09:09:43;;;;;;;3.10;1.40;;;2.50;99.90;;;0.77;100.00;97742.56;4999596;28;20047;-73
2023/01/17 09:12:09;;;;;;;6.90;1.50;;;2.50;99.90;;;0.71;100.00;97749.69;5007935;28;20031;-73
2023/01/17 09:14:36;;;;;;;5.07;1.60;;;2.50;99.90;;;0.73;100.00;97747.59;4998941;28;20030;-73
2023/01/17 09:17:04;;;;;;;4.60;1.40;;;2.50;99.90;;;0.76;100.00;97757.88;4997654;28;20085;-72
2023/01/17 09:19:30;;;;;;;7.22;2.08;;;2.50;99.90;;;0.81;100.00;97758.00;4997392;28;20337;-73
2023/01/17 09:21:56;;;;;;;5.32;1.80;;;2.50;99.90;;;0.78;100.00;97763.00;5000127;28;20058;-76
2023/01/17 09:24:21;;;;;;;5.90;1.42;;;2.50;99.90;;;0.87;100.00;97748.25;5003078;28;20143;-73
2023/01/17 09:26:47;;;;;;;7.38;1.45;;;2.60;99.90;;;0.93;100.00;97768.00;5004883;28;20034;-73
2023/01/17 09:29:16;;;;;;;3.92;1.30;;;2.60;99.90;;;0.98;100.00;97763.59;5009365;28;20042;-74
2023/01/17 09:31:45;;;;;;;6.13;1.35;;;2.70;99.90;;;1.04;100.00;97763.72;4994082;28;20069;-74
2023/01/17 09:34:12;;;;;;;7.72;1.35;;;2.80;99.90;;;1.09;100.00;97762.00;5014215;28;20041;-74
2023/01/17 09:36:37;;;;;;;5.60;1.40;;;2.80;99.90;;;1.18;100.00;97759.84;5008484;28;20087;-72
2023/01/17 09:39:03;;;;;;;5.47;1.30;;;2.90;99.90;;;1.26;100.00;97764.91;4997193;28;20475;-75
2023/01/17 09:41:35;;;;;;;5.45;1.40;;;3.00;99.90;;;1.39;100.00;97755.84;4995554;28;20065;-72
2023/01/17 09:44:22;;;;;;;5.30;1.17;;;3.10;99.90;;;1.49;100.00;97759.84;4995046;28;20050;-72
2023/01/17 09:46:52;;;;;;;7.13;1.27;;;3.20;99.90;;;1.54;100.00;97760.78;4995318;28;20073;-76
2023/01/17 09:49:36;;;;;;;2.50;0.90;;;3.30;99.90;;;1.67;100.00;97773.22;5008633;28;20035;-72
2023/01/17 09:52:05;;;;;;;4.15;1.20;;;3.50;99.90;;;1.81;100.00;97779.22;4995846;28;20121;-72
2023/01/17 09:54:37;;;;;;;2.85;0.85;;;3.90;99.90;;;2.02;100.00;97790.47;4995099;28;20038;-72
2023/01/17 09:57:39;;;;;;;8.23;1.25;;;4.50;99.90;;;2.34;100.00;97778.59;5006983;28;20038;-74
2023/01/17 10:00:32;;;;;;;3.10;0.75;;;5.00;99.90;;;2.77;100.00;97787.34;5011746;28;20493;-73
2023/01/17 10:03:28;;;;;;;3.40;1.13;;;5.90;99.90;;;3.19;98.95;97779.06;5011395;28;20041;-73
2023/01/17 10:06:29;;;;;;;3.67;0.88;;;6.50;99.90;;;3.69;90.84;97774.06;5013577;28;20042;-73
2023/01/17 10:09:51;;;;;;;3.70;0.88;;;6.60;99.90;;;4.64;82.83;97778.81;5016714;28;20035;-73
2023/01/17 10:12:44;;;;;;;6.05;1.00;;;7.00;99.90;;;5.72;73.67;97775.75;4995835;28;20116;-72
2023/01/17 10:15:25;;;;;;;4.25;0.70;;;7.80;99.90;;;6.65;65.03;97767.59;4996770;28;20046;-73
2023/01/17 10:18:34;;;;;;;2.65;0.75;;;8.30;99.90;;;7.94;60.83;97772.66;4992485;28;20069;-73
2023/01/17 10:22:01;;;;;;;3.97;1.00;;;9.00;99.90;;;7.79;55.56;97768.84;5026995;28;20053;-73
2023/01/17 10:25:03;;;;;;;2.40;0.68;;;8.80;99.20;;;7.08;57.77;97771.09;4992969;28;20050;-73
2023/01/17 10:27:40;;;;;;;3.10;1.23;;;8.80;99.90;;;6.18;57.47;97778.09;4993002;28;20042;-73
2023/01/17 10:30:25;;;;;;;9.85;1.75;;;8.50;98.50;;;5.29;64.44;97786.41;4994538;28;20504;-73
2023/01/17 10:32:51;;;;;;;3.30;0.80;;;7.50;99.90;;;6.52;63.19;97788.66;5009222;28;20030;-72
2023/01/17 10:35:28;;;;;;;5.38;0.75;;;7.60;99.90;;;7.28;56.75;97764.91;4995240;28;20049;-72
2023/01/17 10:37:59;;;;;;;5.20;1.00;;;8.50;99.90;;;7.71;57.84;97774.81;5009285;28;20144;-73
2023/01/17 10:40:43;;;;;;;3.30;0.70;;;8.70;99.90;;;8.30;54.07;97764.53;4994406;28;20034;-73
2023/01/17 10:43:38;;;;;;;3.15;0.80;;;9.40;98.50;;;8.89;50.45;97759.56;4994159;28;20034;-73
2023/01/17 10:46:07;;;;;;;3.70;0.80;;;10.30;94.10;;;8.17;51.30;97755.84;5013232;28;20104;-73
2023/01/17 10:48:48;;;;;;;4.45;1.23;;;10.00;93.90;;;7.71;52.30;97764.75;5017557;28;20036;-72
2023/01/17 10:51:48;;;;;;;8.10;0.85;;;9.30;95.10;;;8.24;52.33;97766.44;5008154;28;20121;-71
2023/01/17 10:54:34;;;;;;;3.97;0.90;;;9.30;95.90;;;8.12;51.24;97764.00;5007070;28;20037;-72
2023/01/17 10:56:59;;;;;;;6.13;1.15;;;9.60;94.40;;;8.45;49.79;97759.06;5007390;28;20038;-72
2023/01/17 10:59:34;;;;;;;2.15;0.68;;;10.30;92.60;;;9.25;48.42;97756.72;5010513;28;20048;-72
2023/01/17 11:02:06;;;;;;;4.93;1.00;;;10.70;92.00;;;7.91;49.50;97761.25;4995405;28;20638;-73
2023/01/17 11:04:39;;;;;;;4.00;0.90;;;10.00;90.90;;;8.91;49.18;97758.22;5012974;28;20482;-73
2023/01/17 11:07:21;;;;;;;2.47;0.80;;;10.20;92.60;;;7.71;51.86;97778.34;4994060;28;20065;-72
2023/01/17 11:09:52;;;;;;;2.38;0.70;;;10.00;92.20;;;8.63;50.27;97773.22;4998676;28;20041;-73
2023/01/17 11:12:39;;;;;;;5.45;0.77;;;10.00;92.60;;;9.55;47.99;97754.13;5021401;28;20037;-73
2023/01/17 11:15:08;;;;;;;3.22;0.80;;;10.70;91.70;;;9.07;48.02;97760.88;4997725;28;20305;-73
2023/01/17 11:17:37;;;;;;;3.25;0.88;;;10.50;90.20;;;8.83;48.97;97772.34;4993614;28;20470;-73
2023/01/17 11:20:23;;;;;;;3.80;0.88;;;10.70;90.70;;;8.90;48.71;97761.19;4997439;28;20042;-73
2023/01/17 11:23:17;;;;;;;3.45;0.80;;;10.80;90.00;;;8.52;48.94;97775.13;4993443;28;20048;-73
2023/01/17 11:25:56;;;;;;;3.47;1.00;;;10.60;90.50;;;8.51;49.54;97770.00;5000933;28;20070;-73
2023/01/17 11:28:32;;;;;;;2.35;0.90;;;10.20;91.10;;;7.95;50.39;97779.72;4994308;28;20042;-73
2023/01/17 11:31:06;;;;;;;4.70;0.90;;;10.00;90.90;;;8.28;50.22;97783.81;4994414;28;20069;-73
2023/01/17 11:34:16;;;;;;;2.90;0.80;;;10.10;91.30;;;8.87;48.78;97767.19;4993528;28;20470;-73
2023/01/17 11:36:42;;;;;;;2.80;0.82;;;10.50;90.50;;;8.78;49.12;97770.50;4995880;28;20026;-75
2023/01/17 11:39:16;;;;;;;4.22;0.93;;;10.60;90.60;;;8.02;49.71;97786.50;4998439;28;20437;-74
2023/01/17 11:41:46;;;;;;;4.05;0.70;;;10.00;90.50;;;8.44;49.97;97784.63;5001213;28;20050;-73
2023/01/17 11:44:28;;;;;;;4.93;1.00;;;10.00;91.20;;;8.44;50.07;97784.63;5009751;28;20054;-73
2023/01/17 11:47:11;;;;;;;6.65;1.17;;;10.10;91.20;;;8.56;48.30;97789.00;4997769;28;20554;-73
2023/01/17 11:49:39;;;;;;;4.20;1.10;;;10.40;88.80;;;8.52;49.74;97779.78;5011773;28;20034;-73
2023/01/17 11:52:10;;;;;;;;;;;10.30;90.70;;;9.07;48.75;97780.72;4997755;28;20030;-73
2023/01/17 11:54:39;;;;;;;5.28;0.98;;;10.60;90.60;;;8.41;48.94;97787.88;4997156;28;19918;-73
2023/01/17 11:57:19;;;;;;;2.22;0.75;;;10.50;90.40;;;7.69;49.38;97793.25;4997745;28;20494;-73
2023/01/17 11:59:46;;;;;;;4.10;0.80;;;9.70;90.20;;;8.67;48.84;97792.53;4998057;28;20035;-74
2023/01/17 12:02:36;;;;;;;3.20;1.13;;;10.20;91.00;;;8.52;48.94;97793.34;4995027;28;20168;-73